Time;durP1;ratioP1;P1;durP2;ratioP2;P2;SDS_P1;SDS_P2;PMS_P1;PMS_P2;Temp;Humidity;BMP_temperature;BMP_pressure;BME280_temperature;BME280_humidity;BME280_pressure;Samples;Min_cycle;Max_cycle;Signal;HPM_P1;HPM_P2
2022/12/17 13:05:54;;;;;;;11.85;2.00;;;;;;;21.84;100.00;101735.78;2076793;28;20439;-75
2022/12/17 13:07:25;;;;;;;8.43;1.42;;;;;;;21.84;100.00;101741.16;2070245;28;20057;-76
2022/12/17 13:08:50;;;;;;;7.07;1.52;;;;;;;21.84;100.00;101731.28;2076060;28;20049;-75
2022/12/17 13:10:28;;;;;;;4.45;1.13;;;;;;;21.82;100.00;101743.84;2099564;28;20052;-74
2022/12/17 13:11:57;;;;;;;10.00;1.30;;;;;;;21.76;100.00;101730.50;2080937;28;20046;-74
2022/12/17 13:13:32;;;;;;;9.80;1.58;;;;;;;21.75;100.00;101735.91;2085553;28;20831;-74
2022/12/17 13:14:59;;;;;;;9.77;1.35;;;;;;;21.72;100.00;101734.16;2102619;28;20044;-75
2022/12/17 13:16:33;;;;;;;11.13;1.48;;;;;;;21.72;100.00;101741.34;2089325;28;20053;-74
2022/12/17 13:17:59;;;;;;;10.25;1.65;;;;;;;21.70;100.00;101737.78;2080394;28;20068;-74
2022/12/17 13:19:36;;;;;;;9.05;1.33;;;;;;;21.66;100.00;101734.22;2071956;28;20052;-74
2022/12/17 13:21:01;;;;;;;10.07;1.65;;;;;;;21.63;100.00;101736.09;2087075;28;20141;-74
2022/12/17 13:22:32;;;;;;;10.43;1.63;;;;;;;21.61;100.00;101738.78;2085796;28;20052;-74
2022/12/17 13:23:54;;;;;;;6.00;1.00;;;;;;;21.60;100.00;101736.13;2087459;28;20045;-74
2022/12/17 13:25:17;;;;;;;9.20;1.30;;;;;;;21.57;100.00;101728.09;2101794;28;20102;-74
2022/12/17 13:26:54;;;;;;;8.65;1.80;;;;;;;21.54;100.00;101720.06;2087287;28;20083;-74
2022/12/17 13:28:27;;;;;;;11.40;1.48;;;;;;;21.51;100.00;101725.50;2077736;28;20056;-74
2022/12/17 13:29:50;;;;;;;10.80;1.60;;;;;;;21.47;100.00;101736.28;2077596;28;20057;-74
2022/12/17 13:31:19;;;;;;;12.30;2.03;;;;;;;21.45;100.00;101732.75;2082766;28;20048;-74
2022/12/17 13:32:55;;;;;;;6.75;1.33;;;;;;;21.41;100.00;101733.69;2085881;28;20087;-74
2022/12/17 13:34:26;;;;;;;8.98;1.52;;;;;;;21.37;100.00;101728.38;2084904;28;20496;-74
2022/12/17 13:36:01;;;;;;;11.38;1.38;;;;;;;21.33;100.00;101732.88;2100194;28;20147;-73
2022/12/17 13:37:34;;;;;;;7.00;1.05;;;;;;;21.32;100.00;101736.50;2089227;28;20041;-74
2022/12/17 13:39:03;;;;;;;10.32;1.50;;;;;;;21.30;100.00;101726.69;2098207;28;20048;-74
2022/12/17 13:40:39;;;;;;;9.73;1.63;;;;;;;21.29;100.00;101730.28;2087024;28;20036;-74
2022/12/17 13:42:03;;;;;;;10.10;1.40;;;;;;;21.26;100.00;101733.91;2100864;28;20048;-74
2022/12/17 13:43:33;;;;;;;8.25;1.10;;;;;;;21.24;100.00;101733.03;2081027;28;20053;-74
2022/12/17 13:44:56;;;;;;;11.57;2.25;;;;;;;21.24;100.00;101741.09;2093152;28;20482;-74
2022/12/17 13:46:19;;;;;;;4.70;1.55;;;;;;;21.21;100.00;101727.69;2083502;28;20442;-75
2022/12/17 13:47:42;;;;;;;16.15;1.83;;;;;;;21.18;100.00;101719.69;2077847;28;20513;-74
2022/12/17 13:49:14;;;;;;;8.90;1.77;;;;;;;21.15;100.00;101732.22;2080409;28;20134;-75
2022/12/17 13:50:37;;;;;;;4.57;1.40;;;;;;;21.12;100.00;101732.25;2091545;28;20052;-74
2022/12/17 13:52:04;;;;;;;9.07;1.48;;;;;;;21.10;100.00;101734.97;2082626;28;20099;-75
2022/12/17 13:53:26;;;;;;;9.68;1.67;;;;;;;21.06;100.00;101736.81;2099436;28;20044;-75
2022/12/17 13:54:48;;;;;;;8.40;1.20;;;;;;;21.03;100.00;101744.88;2091935;28;20136;-75
2022/12/17 13:56:09;;;;;;;11.35;1.67;;;;;;;20.99;100.00;101737.78;2099639;28;20051;-76
2022/12/17 13:57:37;;;;;;;8.85;1.80;;;;;;;20.95;100.00;101735.13;2090265;28;20048;-75
2022/12/17 13:59:01;;;;;;;13.73;2.58;;;;;;;20.90;100.00;101727.13;2069514;28;20637;-75
2022/12/17 14:00:31;;;;;;;15.02;2.03;;;;;;;20.86;100.00;101733.47;2071513;28;20056;-74
2022/12/17 14:01:55;;;;;;;7.85;2.10;;;;;;;20.82;100.00;101736.19;2083339;28;20170;-74
2022/12/17 14:03:21;;;;;;;7.68;1.70;;;;;;;20.79;100.00;101739.81;2074863;28;20080;-74
2022/12/17 14:04:44;;;;;;;8.82;1.65;;;;;;;20.74;100.00;101725.56;2075716;28;20045;-74
2022/12/17 14:06:11;;;;;;;11.05;1.70;;;;;;;20.71;100.00;101725.56;2081882;28;20044;-74
2022/12/17 14:07:38;;;;;;;9.60;1.73;;;;;;;20.67;100.00;101731.88;2081805;28;20044;-74
2022/12/17 14:09:01;;;;;;;6.80;1.58;;;;;;;20.64;100.00;101723.84;2084106;28;20045;-74
2022/12/17 14:10:25;;;;;;;10.05;1.65;;;;;;;20.63;100.00;101730.13;2101936;28;20464;-73
2022/12/17 14:13:27;;;;;;;11.70;1.85;;;;;;;20.58;100.00;101735.53;2101435;28;20180;-74
2022/12/17 14:14:54;;;;;;;12.25;1.77;;;;;;;20.55;100.00;101732.88;2096017;28;20045;-74
2022/12/17 14:16:18;;;;;;;10.90;1.63;;;;;;;20.52;100.00;101740.97;2090484;28;20067;-74
2022/12/17 14:17:45;;;;;;;8.32;1.95;;;;;;;20.50;100.00;101736.50;2084672;28;20140;-74
2022/12/17 14:19:10;;;;;;;8.90;2.08;;;;;;;20.46;100.00;101732.09;2099207;28;20047;-74
2022/12/17 14:20:35;;;;;;;8.30;1.88;;;;;;;20.44;100.00;101728.53;2104125;28;20047;-74
2022/12/17 14:21:58;;;;;;;12.75;1.83;;;;;;;20.39;100.00;101736.63;2090304;28;20131;-74
2022/12/17 14:23:28;;;;;;;14.15;1.80;;;;;;;20.36;100.00;101744.69;2101609;28;20651;-74
2022/12/17 14:24:51;;;;;;;8.63;2.15;;;;;;;20.31;100.00;101738.44;2084959;28;20218;-74
2022/12/17 14:26:14;;;;;;;7.25;1.90;;;;;;;20.28;100.00;101738.50;2076662;28;20041;-74
2022/12/17 14:27:37;;;;;;;10.88;2.22;;;;;;;20.26;100.00;101749.22;2071364;28;20395;-74
2022/12/17 14:29:00;;;;;;;11.30;2.95;;;;;;;20.24;100.00;101744.75;2082759;28;20045;-74
2022/12/17 14:30:36;;;;;;;10.63;2.08;;;;;;;20.21;100.00;101752.84;2078152;28;20573;-75
2022/12/17 14:32:02;;;;;;;10.55;1.70;;;;;;;20.18;100.00;101760.91;2099968;28;20080;-75
2022/12/17 14:33:26;;;;;;;10.00;1.80;;;;;;;20.15;100.00;101759.13;2089163;28;20435;-74
2022/12/17 14:34:48;;;;;;;11.65;1.63;;;;;;;20.12;100.00;101751.13;2078757;28;20099;-75
2022/12/17 14:36:19;;;;;;;10.23;2.00;;;;;;;20.11;100.00;101756.50;2093144;28;20040;-74
2022/12/17 14:37:47;;;;;;;9.82;1.63;;;;;;;20.07;100.00;101749.38;2072744;28;20038;-74
2022/12/17 14:39:18;;;;;;;11.10;1.92;;;;;;;20.05;100.00;101752.06;2083448;28;20049;-74
2022/12/17 14:40:41;;;;;;;11.38;2.42;;;;;;;20.01;100.00;101747.63;2102495;28;20036;-74
2022/12/17 14:42:25;;;;;;;13.13;2.20;;;;;;;19.99;100.00;101753.91;2078730;28;20056;-74
2022/12/17 14:43:55;;;;;;;10.57;2.35;;;;;;;19.95;100.00;101755.72;2106217;28;20098;-74
2022/12/17 14:45:25;;;;;;;14.00;2.95;;;;;;;19.93;100.00;101760.19;2085532;28;20074;-75
2022/12/17 14:46:47;;;;;;;14.20;2.13;;;;;;;19.90;100.00;101747.69;2086420;28;20516;-74
2022/12/17 14:48:16;;;;;;;16.35;2.22;;;;;;;19.89;100.00;101759.31;2102295;28;20087;-74
2022/12/17 14:49:46;;;;;;;14.13;2.30;;;;;;;19.86;100.00;101764.72;2092311;28;20115;-74
2022/12/17 14:51:21;;;;;;;11.75;2.35;;;;;;;19.84;100.00;101770.97;2103969;28;20113;-74
2022/12/17 14:52:46;;;;;;;11.73;2.22;;;;;;;19.81;100.00;101771.91;2084120;28;20056;-74
2022/12/17 14:54:30;;;;;;;9.40;1.58;;;;;;;19.75;100.00;101755.84;2079635;28;20575;-74
2022/12/17 14:55:56;;;;;;;9.73;2.05;;;;;;;19.73;100.00;101765.69;2090192;28;20041;-74
2022/12/17 14:57:20;;;;;;;10.10;2.33;;;;;;;19.73;100.00;101771.03;2093990;28;20090;-74
2022/12/17 14:58:46;;;;;;;5.00;2.40;;;;;;;19.71;100.00;101778.19;2083058;28;20048;-75
2022/12/17 15:00:10;;;;;;;9.10;2.35;;;;;;;19.69;100.00;101774.63;2090694;28;20151;-75
2022/12/17 15:01:34;;;;;;;10.60;2.83;;;;;;;19.66;100.00;101780.00;2099935;28;20041;-74
2022/12/17 15:02:57;;;;;;;9.90;2.28;;;;;;;19.62;100.00;101766.66;2087085;28;20044;-74
2022/12/17 15:04:20;;;;;;;8.35;2.47;;;;;;;19.63;100.00;101776.44;2102597;28;20041;-75
2022/12/17 15:05:42;;;;;;;7.20;1.60;;;;;;;19.61;100.00;101780.94;2091343;28;20048;-75
2022/12/17 15:07:06;;;;;;;12.10;2.42;;;;;;;19.60;100.00;101772.00;2076654;28;20033;-73
2022/12/17 15:08:32;;;;;;;8.45;1.65;;;;;;;19.56;100.00;101769.38;2083593;28;20583;-74
2022/12/17 15:09:57;;;;;;;11.18;2.50;;;;;;;19.53;100.00;101772.03;2087252;28;20033;-74
2022/12/17 15:11:23;;;;;;;13.57;2.17;;;;;;;19.51;100.00;101777.41;2079031;28;20053;-74
2022/12/17 15:12:46;;;;;;;10.10;1.90;;;;;;;19.48;100.00;101778.31;2072784;28;20049;-74
2022/12/17 15:14:09;;;;;;;11.95;2.78;;;;;;;19.46;100.00;101781.91;2078514;28;20073;-75
2022/12/17 15:15:31;;;;;;;7.25;2.13;;;;;;;19.42;100.00;101777.44;2100930;28;20048;-74
2022/12/17 15:16:55;;;;;;;10.77;3.25;;;;;;;19.41;100.00;101787.25;2090388;28;20123;-73
2022/12/17 15:18:18;;;;;;;9.68;2.40;;;;;;;19.42;100.00;101793.50;2086496;28;20036;-74
2022/12/17 15:19:40;;;;;;;8.10;2.03;;;;;;;19.42;100.00;101793.50;2078600;28;20492;-74
2022/12/17 15:21:03;;;;;;;9.57;1.88;;;;;;;19.41;100.00;101800.66;2083891;28;20098;-74
2022/12/17 15:22:25;;;;;;;10.55;2.38;;;;;;;19.39;100.00;101805.09;2085524;28;20077;-74
2022/12/17 15:23:48;;;;;;;15.10;2.20;;;;;;;19.37;100.00;101797.97;2100826;28;20071;-74
2022/12/17 15:25:12;;;;;;;10.30;1.92;;;;;;;19.34;100.00;101801.56;2082048;28;20049;-74
2022/12/17 15:26:35;;;;;;;13.55;2.60;;;;;;;19.33;100.00;101799.78;2083752;28;20048;-74
2022/12/17 15:27:57;;;;;;;9.82;1.63;;;;;;;19.31;100.00;101806.03;2085869;28;20053;-75
2022/12/17 15:29:20;;;;;;;9.10;2.30;;;;;;;19.30;100.00;101801.56;2083765;28;20040;-74
2022/12/17 15:30:42;;;;;;;12.23;2.25;;;;;;;19.29;100.00;101802.47;2097105;28;20052;-74
2022/12/17 15:32:06;;;;;;;8.52;1.85;;;;;;;19.28;100.00;101795.34;2083325;28;20754;-74
2022/12/17 15:33:29;;;;;;;9.48;2.13;;;;;;;19.28;100.00;101801.59;2094275;28;20060;-73
2022/12/17 15:34:51;;;;;;;9.88;1.75;;;;;;;19.27;100.00;101798.91;2079721;28;20052;-74
2022/12/17 15:36:13;;;;;;;9.80;2.50;;;;;;;19.28;100.00;101793.56;2088804;28;20044;-74
2022/12/17 15:37:36;;;;;;;8.40;1.60;;;;;;;19.27;100.00;101798.91;2084561;28;20519;-73
2022/12/17 15:38:58;;;;;;;8.90;2.10;;;;;;;19.28;100.00;101809.63;2085215;28;20037;-74
2022/12/17 15:40:21;;;;;;;8.35;2.28;;;;;;;19.26;100.00;101798.00;2101649;28;20055;-74
2022/12/17 15:43:23;;;;;;;4.65;1.70;;;;;;;19.24;100.00;101804.25;2096770;28;20056;-74
2022/12/17 15:44:45;;;;;;;4.50;1.45;;;;;;;19.24;100.00;101798.91;2095905;28;20044;-74
2022/12/17 15:46:09;;;;;;;10.68;2.22;;;;;;;19.24;100.00;101799.78;2102032;28;20523;-74
2022/12/17 15:47:32;;;;;;;10.38;2.60;;;;;;;19.22;100.00;101812.31;2089358;28;20060;-74
2022/12/17 15:48:56;;;;;;;10.43;2.70;;;;;;;19.20;100.00;101811.41;2090383;28;20048;-74
2022/12/17 15:50:19;;;;;;;11.60;2.13;;;;;;;19.18;100.00;101809.63;2087787;28;20064;-74
2022/12/17 15:51:41;;;;;;;15.13;2.60;;;;;;;19.17;100.00;101805.16;2086714;28;20045;-74
2022/12/17 15:53:03;;;;;;;8.15;2.47;;;;;;;19.15;100.00;101806.97;2084045;28;20122;-74
2022/12/17 15:54:26;;;;;;;12.27;2.20;;;;;;;19.13;100.00;101814.13;2070379;28;20052;-74
2022/12/17 15:56:20;;;;;;;12.10;2.15;;;;;;;19.10;100.00;101812.31;2118625;27;20399;-73
2022/12/17 15:57:43;;;;;;;7.38;1.42;;;;;;;19.07;100.00;101815.03;2107938;28;20043;-73
2022/12/17 15:59:05;;;;;;;10.48;1.85;;;;;;;19.07;100.00;101810.56;2111837;28;20056;-72
2022/12/17 16:00:28;;;;;;;13.20;2.55;;;;;;;19.06;100.00;101827.53;2112029;28;20058;-73
2022/12/17 16:01:50;;;;;;;7.68;2.22;;;;;;;19.08;100.00;101830.19;2111994;28;20044;-73
2022/12/17 16:03:12;;;;;;;10.05;2.10;;;;;;;19.07;100.00;101818.59;2114018;28;20409;-73
2022/12/17 16:04:34;;;;;;;7.25;1.50;;;;;;;19.09;100.00;101827.53;2100719;28;20532;-73
2022/12/17 16:05:56;;;;;;;13.45;2.05;;;;;;;19.07;100.00;101823.94;2105631;28;20047;-72
2022/12/17 16:07:18;;;;;;;15.45;2.50;;;;;;;19.06;100.00;101815.91;2109291;28;20048;-73
2022/12/17 16:08:41;;;;;;;10.23;2.13;;;;;;;19.04;100.00;101831.06;2109320;28;20199;-73
2022/12/17 16:10:03;;;;;;;5.68;1.80;;;;;;;19.02;100.00;101835.56;2108867;28;20096;-74
2022/12/17 16:11:27;;;;;;;13.45;2.97;;;;;;;19.02;100.00;101827.53;2109207;28;20063;-73
2022/12/17 16:12:49;;;;;;;11.88;2.35;;;;;;;19.01;100.00;101832.00;2109617;28;20036;-74
2022/12/17 16:14:11;;;;;;;9.57;2.10;;;;;;;19.01;100.00;101834.69;2109436;28;20050;-73
2022/12/17 16:15:34;;;;;;;12.68;2.00;;;;;;;19.00;100.00;101832.88;2109195;28;20152;-73
2022/12/17 16:16:56;;;;;;;12.93;2.42;;;;;;;19.00;100.00;101827.53;2103615;28;20429;-73
2022/12/17 16:18:19;;;;;;;7.35;1.70;;;;;;;18.98;100.00;101833.78;2108512;28;20043;-74
2022/12/17 16:19:41;;;;;;;9.13;1.80;;;;;;;18.95;100.00;101832.00;2103221;28;20067;-73
2022/12/17 16:21:04;;;;;;;9.85;2.40;;;;;;;18.94;100.00;101832.00;2109277;28;20051;-73
2022/12/17 16:22:26;;;;;;;10.90;1.85;;;;;;;18.92;100.00;101834.69;2095048;28;20053;-73
2022/12/17 16:23:48;;;;;;;3.75;1.52;;;;;;;18.91;100.00;101835.56;2106352;28;20100;-73
2022/12/17 16:25:10;;;;;;;;;;;;;;;18.85;100.00;101837.34;2103828;28;20048;-73
2022/12/17 16:26:34;;;;;;;14.73;2.47;;;;;;;18.83;100.00;101832.03;2104322;28;19924;-73
2022/12/17 16:27:56;;;;;;;7.88;1.90;;;;;;;18.84;100.00;101839.13;2109386;28;20052;-73
2022/12/17 16:29:19;;;;;;;13.88;2.17;;;;;;;18.86;100.00;101842.72;2109368;28;20078;-72
2022/12/17 16:30:41;;;;;;;8.18;2.25;;;;;;;18.86;100.00;101847.16;2111886;28;20044;-73
2022/12/17 16:32:04;;;;;;;8.98;2.15;;;;;;;18.86;100.00;101845.38;2109137;28;20407;-73
2022/12/17 16:33:26;;;;;;;7.82;1.70;;;;;;;18.83;100.00;101834.72;2109446;28;20043;-72
2022/12/17 16:34:48;;;;;;;7.40;2.22;;;;;;;18.83;100.00;101839.16;2109044;28;20063;-73
2022/12/17 16:36:14;;;;;;;9.55;2.35;;;;;;;18.82;100.00;101842.72;2109122;28;20063;-74
2022/12/17 16:37:36;;;;;;;7.13;2.03;;;;;;;18.80;100.00;101848.06;2112141;28;20048;-74
2022/12/17 16:38:58;;;;;;;9.00;2.67;;;;;;;18.78;100.00;101849.84;2108818;28;20043;-73
2022/12/17 16:40:21;;;;;;;10.18;2.38;;;;;;;18.77;100.00;101848.09;2108994;28;20050;-73
2022/12/17 16:41:45;;;;;;;8.90;1.92;;;;;;;18.78;100.00;101838.25;2109182;28;20550;-73
2022/12/17 16:43:09;;;;;;;7.63;2.10;;;;;;;18.77;100.00;101856.13;2104857;28;20055;-73
2022/12/17 16:44:31;;;;;;;11.40;2.60;;;;;;;18.75;100.00;101852.53;2108145;28;20686;-73
2022/12/17 16:45:54;;;;;;;11.82;2.80;;;;;;;18.73;100.00;101848.97;2108589;28;20090;-73
2022/12/17 16:47:16;;;;;;;7.95;1.88;;;;;;;18.72;100.00;101849.84;2111386;28;20110;-73
2022/12/17 16:48:39;;;;;;;9.07;2.22;;;;;;;18.74;100.00;101853.44;2108001;28;20711;-73
2022/12/17 16:50:01;;;;;;;7.13;1.75;;;;;;;18.74;100.00;101853.44;2109031;28;20104;-73
2022/12/17 16:51:26;;;;;;;12.77;2.58;;;;;;;18.76;100.00;101854.34;2099716;28;20044;-73
2022/12/17 16:52:49;;;;;;;7.05;1.70;;;;;;;18.76;100.00;101845.41;2100809;28;20040;-73
2022/12/17 16:54:14;;;;;;;12.18;2.75;;;;;;;18.78;100.00;101846.28;2100597;28;20051;-73
2022/12/17 16:55:41;;;;;;;12.30;2.53;;;;;;;18.77;100.00;101853.44;2092516;28;20040;-72
2022/12/17 16:57:05;;;;;;;12.95;1.95;;;;;;;18.76;100.00;101850.75;2114992;28;20074;-72
2022/12/17 16:58:27;;;;;;;5.95;1.27;;;;;;;18.72;100.00;101860.56;2094890;28;20068;-73
2022/12/17 16:59:50;;;;;;;9.57;2.58;;;;;;;18.74;100.00;101855.22;2106395;28;20048;-73
2022/12/17 17:01:13;;;;;;;8.13;2.40;;;;;;;18.73;100.00;101859.66;2102933;28;20040;-73
2022/12/17 17:02:35;;;;;;;9.93;2.47;;;;;;;18.73;100.00;101867.69;2100368;28;20056;-73
2022/12/17 17:03:58;;;;;;;9.75;1.98;;;;;;;18.71;100.00;101867.69;2091891;28;20102;-73
2022/12/17 17:05:21;;;;;;;9.05;1.77;;;;;;;18.69;100.00;101864.16;2099844;28;20090;-75
2022/12/17 17:06:46;;;;;;;7.65;2.10;;;;;;;18.68;100.00;101866.81;2107831;28;20097;-72
2022/12/17 17:08:08;;;;;;;11.70;2.10;;;;;;;18.65;100.00;101865.00;2105368;28;20043;-73
2022/12/17 17:09:31;;;;;;;7.15;1.95;;;;;;;18.64;100.00;101871.25;2097248;28;20059;-72
2022/12/17 17:10:53;;;;;;;9.18;2.63;;;;;;;18.64;100.00;101865.03;2095026;28;20047;-72
2022/12/17 17:12:17;;;;;;;12.32;3.65;;;;;;;18.62;100.00;101872.16;2094931;28;20097;-72
2022/12/17 17:13:40;;;;;;;13.60;4.85;;;;;;;18.59;100.00;101867.69;2105153;28;20051;-72
2022/12/17 17:15:03;;;;;;;12.07;5.65;;;;;;;18.57;100.00;101866.81;2109176;27;20054;-73
2022/12/17 17:16:24;;;;;;;17.85;10.23;;;;;;;18.54;100.00;101873.91;2088923;28;20045;-72
2022/12/17 17:17:47;;;;;;;23.95;14.88;;;;;;;18.51;100.00;101865.91;2100802;28;20074;-72
2022/12/17 17:19:09;;;;;;;18.63;11.93;;;;;;;18.48;100.00;101866.78;2106110;28;20036;-72
2022/12/17 17:20:32;;;;;;;23.33;12.60;;;;;;;18.44;100.00;101867.66;2105863;28;20412;-71
2022/12/17 17:21:55;;;;;;;22.58;14.25;;;;;;;18.43;100.00;101865.00;2097470;28;20084;-73
2022/12/17 17:23:17;;;;;;;23.83;17.00;;;;;;;18.41;100.00;101867.66;2095039;28;20101;-72
2022/12/17 17:24:40;;;;;;;26.95;19.52;;;;;;;18.39;100.00;101863.19;2089111;28;20056;-72
2022/12/17 17:26:02;;;;;;;31.63;24.08;;;;;;;18.37;100.00;101864.97;2100949;28;20063;-72
2022/12/17 17:27:26;;;;;;;35.28;25.20;;;;;;;18.37;100.00;101875.69;2105993;28;20040;-72
2022/12/17 17:28:48;;;;;;;42.83;35.88;;;;;;;18.33;100.00;101864.97;2111453;28;20054;-72
2022/12/17 17:30:11;;;;;;;77.72;58.17;;;;;;;18.31;100.00;101866.72;2100467;28;20048;-72
2022/12/17 17:31:35;;;;;;;74.35;59.38;;;;;;;18.28;100.00;101866.75;2103592;28;20104;-72
2022/12/17 17:32:57;;;;;;;82.43;70.18;;;;;;;18.26;100.00;101865.84;2089078;28;20049;-72
2022/12/17 17:34:19;;;;;;;62.80;54.58;;;;;;;18.25;100.00;101860.47;2109073;28;20116;-73
2022/12/17 17:35:41;;;;;;;67.90;55.67;;;;;;;18.23;100.00;101865.84;2099857;28;20044;-73
2022/12/17 17:37:03;;;;;;;57.47;42.70;;;;;;;18.21;100.00;101864.06;2111464;28;20598;-73
2022/12/17 17:38:24;;;;;;;63.30;54.15;;;;;;;18.18;100.00;101854.22;2108131;28;20068;-73
2022/12/17 17:39:47;;;;;;;68.13;53.80;;;;;;;18.18;100.00;101864.91;2097375;28;20057;-73
2022/12/17 17:41:10;;;;;;;77.80;63.40;;;;;;;18.18;100.00;101858.72;2102830;28;20515;-73
2022/12/17 17:42:36;;;;;;;58.33;45.75;;;;;;;18.17;100.00;101865.84;2101350;28;20048;-72
2022/12/17 17:44:00;;;;;;;66.82;53.83;;;;;;;18.17;100.00;101862.28;2097717;28;20036;-73
2022/12/17 17:45:23;;;;;;;66.80;52.45;;;;;;;18.15;100.00;101864.94;2090496;28;20045;-73
2022/12/17 17:46:45;;;;;;;65.75;56.70;;;;;;;18.16;100.00;101866.72;2110401;28;20479;-73
2022/12/17 17:48:06;;;;;;;82.53;73.72;;;;;;;18.15;100.00;101870.28;2104877;28;20043;-73
2022/12/17 17:49:29;;;;;;;69.43;60.08;;;;;;;18.14;100.00;101864.91;2095473;28;20051;-72
2022/12/17 17:50:58;;;;;;;66.45;53.20;;;;;;;18.13;100.00;101863.13;2103827;28;20040;-73
2022/12/17 17:52:21;;;;;;;71.72;57.28;;;;;;;18.10;100.00;101866.72;2104854;28;20055;-73
2022/12/17 17:53:45;;;;;;;56.50;45.15;;;;;;;18.10;100.00;101869.38;2106012;28;20096;-74
2022/12/17 17:55:08;;;;;;;50.67;40.60;;;;;;;18.09;100.00;101864.91;2086197;28;20079;-75
2022/12/17 17:56:33;;;;;;;61.55;50.33;;;;;;;18.09;100.00;101864.03;2088688;28;20048;-74
2022/12/17 17:57:57;;;;;;;40.42;32.13;;;;;;;18.07;100.00;101869.38;2115351;27;20043;-74
2022/12/17 17:59:20;;;;;;;35.13;27.40;;;;;;;18.08;100.00;101868.47;2104828;28;20055;-74
2022/12/17 18:00:43;;;;;;;30.92;21.00;;;;;;;18.07;100.00;101879.16;2100774;28;20719;-74
2022/12/17 18:02:06;;;;;;;25.60;17.38;;;;;;;18.06;100.00;101874.69;2101948;28;20083;-74
2022/12/17 18:03:29;;;;;;;30.38;20.13;;;;;;;18.06;100.00;101861.34;2093675;28;20230;-74
2022/12/17 18:04:52;;;;;;;29.50;19.30;;;;;;;18.06;100.00;101872.91;2098944;28;20062;-73
2022/12/17 18:06:15;;;;;;;35.55;28.77;;;;;;;18.06;100.00;101874.69;2103371;28;20044;-74
2022/12/17 18:07:38;;;;;;;64.55;50.97;;;;;;;18.05;100.00;101876.47;2096780;28;20059;-74
2022/12/17 18:09:00;;;;;;;65.68;52.78;;;;;;;18.04;100.00;101882.72;2096566;28;20075;-74
2022/12/17 18:10:23;;;;;;;70.03;53.28;;;;;;;18.04;100.00;101879.16;2098550;28;20423;-73
2022/12/17 18:11:46;;;;;;;73.45;60.33;;;;;;;18.02;100.00;101881.81;2089414;28;20037;-76
2022/12/17 18:14:48;;;;;;;62.42;50.80;;;;;;;18.02;100.00;101873.81;2097389;28;20511;-76
2022/12/17 18:16:11;;;;;;;58.10;47.42;;;;;;;17.99;100.00;101873.78;2092149;28;20048;-77
2022/12/17 18:17:34;;;;;;;41.10;35.85;;;;;;;18.00;100.00;101882.69;2094710;28;20496;-76
2022/12/17 18:18:58;;;;;;;39.60;33.15;;;;;;;17.99;100.00;101880.91;2099299;28;20052;-74
2022/12/17 18:20:20;;;;;;;43.05;31.05;;;;;;;17.98;100.00;101876.47;2097746;28;20048;-73
2022/12/17 18:21:43;;;;;;;37.47;27.33;;;;;;;17.98;100.00;101887.16;2099989;28;20514;-74
2022/12/17 18:23:06;;;;;;;27.55;19.95;;;;;;;17.97;100.00;101877.34;2100082;28;20042;-73
2022/12/17 18:24:28;;;;;;;17.63;10.55;;;;;;;17.95;100.00;101888.03;2100736;28;20052;-74
2022/12/17 18:25:50;;;;;;;13.50;7.32;;;;;;;17.95;100.00;101881.78;2091441;28;20032;-73
2022/12/17 18:27:13;;;;;;;12.75;5.65;;;;;;;17.93;100.00;101880.00;2091013;28;20199;-75
2022/12/17 18:28:39;;;;;;;11.13;3.97;;;;;;;17.93;100.00;101895.16;2110001;28;20360;-73
2022/12/17 18:30:01;;;;;;;6.30;3.30;;;;;;;17.91;100.00;101891.59;2111906;28;20611;-73
2022/12/17 18:31:25;;;;;;;9.70;3.50;;;;;;;17.91;100.00;101896.94;2086582;28;20102;-74
2022/12/17 18:32:47;;;;;;;9.25;3.30;;;;;;;17.89;100.00;101890.69;2095770;28;20516;-74
2022/12/17 18:34:13;;;;;;;10.20;3.40;;;;;;;17.87;100.00;101893.34;2104734;28;20127;-74
2022/12/17 18:35:35;;;;;;;11.00;3.10;;;;;;;17.85;100.00;101889.75;2107185;28;20043;-73
2022/12/17 18:36:58;;;;;;;12.50;3.55;;;;;;;17.84;100.00;101889.78;2094519;28;20044;-73
2022/12/17 18:38:19;;;;;;;7.75;3.10;;;;;;;17.83;100.00;101890.66;2091723;28;20098;-74
2022/12/17 18:39:41;;;;;;;9.25;2.70;;;;;;;17.82;100.00;101899.56;2094373;28;20082;-73
2022/12/17 18:43:22;;;;;;;11.52;2.72;;;;;;;17.82;100.00;101891.56;2110400;27;20054;-74
2022/12/17 18:44:36;;;;;;;;;;;;;;;17.75;100.00;101885.28;2105903;28;20079;-74
2022/12/17 18:46:03;;;;;;;9.13;2.00;;;;;;;17.77;100.00;101896.00;2094664;28;19943;-74
2022/12/17 18:47:25;;;;;;;9.65;2.33;;;;;;;17.78;100.00;101895.09;2108699;28;20056;-74
2022/12/17 18:48:52;;;;;;;7.45;2.38;;;;;;;17.79;100.00;101886.19;2087843;28;20160;-73
2022/12/17 18:50:14;;;;;;;10.15;2.80;;;;;;;17.81;100.00;101895.09;2104474;27;20043;-73
2022/12/17 18:51:38;;;;;;;8.18;2.55;;;;;;;17.80;100.00;101895.97;2095333;28;20045;-74
2022/12/17 18:53:01;;;;;;;8.20;2.60;;;;;;;17.78;100.00;101898.69;2096827;28;20048;-73
2022/12/17 18:54:25;;;;;;;9.18;2.38;;;;;;;17.79;100.00;101900.44;2100671;28;20040;-73
2022/12/17 18:55:49;;;;;;;8.38;3.10;;;;;;;17.80;100.00;101898.66;2097866;28;20057;-73
2022/12/17 18:57:11;;;;;;;9.43;2.58;;;;;;;17.79;100.00;101905.78;2102603;28;20094;-73
2022/12/17 18:58:34;;;;;;;10.00;2.80;;;;;;;17.79;100.00;101899.53;2093216;28;20153;-73
2022/12/17 18:59:58;;;;;;;9.43;2.63;;;;;;;17.78;100.00;101903.13;2089878;28;20172;-73
2022/12/17 19:01:23;;;;;;;11.80;2.90;;;;;;;17.80;100.00;101912.00;2103588;27;20048;-73
2022/12/17 19:02:45;;;;;;;8.23;2.50;;;;;;;17.80;100.00;101906.66;2103039;28;20044;-74
2022/12/17 19:04:11;;;;;;;8.75;2.65;;;;;;;17.79;100.00;101910.22;2097287;28;20052;-73
2022/12/17 19:05:39;;;;;;;11.82;2.25;;;;;;;17.79;100.00;101908.44;2095705;28;20139;-73
2022/12/17 19:07:01;;;;;;;14.45;3.08;;;;;;;17.79;100.00;101907.56;2102924;28;20070;-73
2022/12/17 19:08:24;;;;;;;9.15;2.40;;;;;;;17.79;100.00;101919.13;2089117;28;20044;-73
2022/12/17 19:09:46;;;;;;;5.35;2.17;;;;;;;17.79;100.00;101913.78;2083653;28;20111;-74
2022/12/17 19:11:10;;;;;;;8.45;2.40;;;;;;;17.80;100.00;101915.56;2103338;28;20090;-73
2022/12/17 19:12:33;;;;;;;6.55;2.17;;;;;;;17.77;100.00;101922.69;2099828;28;20044;-73
2022/12/17 19:13:56;;;;;;;13.35;2.65;;;;;;;17.74;100.00;101920.91;2102205;28;20031;-73
2022/12/17 19:15:20;;;;;;;7.85;2.03;;;;;;;17.75;100.00;101921.78;2097202;28;20735;-73
2022/12/17 19:16:42;;;;;;;9.70;2.78;;;;;;;17.73;100.00;101918.22;2102976;28;20056;-73
2022/12/17 19:18:05;;;;;;;11.95;2.83;;;;;;;17.73;100.00;101926.22;2102607;28;20454;-73
2022/12/17 19:19:27;;;;;;;10.30;2.85;;;;;;;17.72;100.00;101921.78;2106876;28;20036;-74
2022/12/17 19:20:57;;;;;;;7.93;2.60;;;;;;;17.69;100.00;101927.09;2105159;28;20130;-73
2022/12/17 19:22:19;;;;;;;11.02;3.17;;;;;;;17.68;100.00;101923.53;2101309;28;20040;-73
2022/12/17 19:23:42;;;;;;;10.57;2.63;;;;;;;17.67;100.00;101923.53;2102506;28;20052;-73
2022/12/17 19:25:05;;;;;;;7.65;2.50;;;;;;;17.67;100.00;101923.53;2103466;28;20047;-74
2022/12/17 19:26:30;;;;;;;9.23;2.67;;;;;;;17.66;100.00;101935.97;2105661;28;20400;-73
2022/12/17 19:27:52;;;;;;;13.43;2.58;;;;;;;17.66;100.00;101932.41;2086471;28;20471;-73
2022/12/17 19:29:17;;;;;;;5.82;2.17;;;;;;;17.64;100.00;101926.19;2099672;28;20048;-73
2022/12/17 19:30:41;;;;;;;11.35;2.72;;;;;;;17.65;100.00;101918.19;2107215;28;20054;-73
2022/12/17 19:32:03;;;;;;;12.60;2.10;;;;;;;17.65;100.00;101928.88;2111174;28;20051;-73
2022/12/17 19:33:26;;;;;;;11.25;2.53;;;;;;;17.63;100.00;101917.28;2106951;28;20442;-73
2022/12/17 19:34:48;;;;;;;8.20;2.72;;;;;;;17.63;100.00;101932.41;2096588;28;20048;-73
2022/12/17 19:36:13;;;;;;;9.70;3.20;;;;;;;17.62;100.00;101936.88;2106050;28;20874;-73
2022/12/17 19:37:35;;;;;;;12.05;3.10;;;;;;;17.61;100.00;101934.19;2108532;28;20472;-74